PWSweather.com
Personal Weather Stations
Station Observations
AC5CV
Greenleaf Peninsula, Waco, TX 76710

Greenleaf PeninsulaWaco, TX 76710

Lat: 31.565, Lon: -97.198

Elevation: 570

Station Type: Ambient WS2080

http://johnchamber.dyndns.info/

High Low Average
Temperature 90.2°F32.3°C 74.8°F23.8°C 81.0°F27.2°C
Dew Point 73.4°F23.0°C 67.9°F19.9°C 71.1°F21.7°C
Winds 6.2 mph 10.0 kmh Calm Calm 2.0 mph SW3.2 kmh SW
Wind Gusts 12.3 mph19.8 kmh -- 5.0 mph8.0 kmh
Humidity 88% 50% 73%
Pressure 29.16 in987.5 mb 29.05 in983.7 mb -
Precipitation 0.00 in0.0 mm - -
Hour Temp Dew Point Humidity Winds Wind Gusts Pressure Precip Precip Rate Daily Precip Total
12:00 AM 77.2°F25.1°C 67.9°F19.9°C 73% 1.5 mph NW2.4 kmh NW 7.4 mph11.9 kmh 29.16 in987.5 mb 0.00 in0.0 mm 0.00 in0.0 mm 0.00 in0.0 mm
12:05 AM 77.2°F25.1°C 67.9°F19.9°C 73% 1.3 mph NW2.1 kmh NW 7.4 mph11.9 kmh 29.16 in987.5 mb 0.00 in0.0 mm 0.00 in0.0 mm 0.00 in0.0 mm
12:10 AM 77.2°F25.1°C 67.9°F19.9°C 73% 0.6 mph NNW1.0 kmh NNW 2.5 mph4.0 kmh 29.16 in987.5 mb 0.00 in0.0 mm 0.00 in0.0 mm 0.00 in0.0 mm
12:15 AM 77.2°F25.1°C 67.9°F19.9°C 73% 1.4 mph N2.3 kmh N 4.9 mph7.9 kmh 29.16 in987.5 mb 0.00 in0.0 mm 0.00 in0.0 mm 0.00 in0.0 mm
12:20 AM 77.2°F25.1°C 67.9°F19.9°C 73% 3.0 mph NW4.8 kmh NW 4.9 mph7.9 kmh 29.16 in987.5 mb 0.00 in0.0 mm 0.00 in0.0 mm 0.00 in0.0 mm
12:25 AM 77.2°F25.1°C 67.9°F19.9°C 73% 1.3 mph NW2.1 kmh NW 4.9 mph7.9 kmh 29.16 in987.5 mb 0.00 in0.0 mm 0.00 in0.0 mm 0.00 in0.0 mm
12:30 AM 77.2°F25.1°C 67.9°F19.9°C 73% 1.2 mph NW1.9 kmh NW 7.4 mph11.9 kmh 29.16 in987.5 mb 0.00 in0.0 mm 0.00 in0.0 mm 0.00 in0.0 mm
12:35 AM 77.2°F25.1°C 68.3°F20.2°C 74% 1.8 mph NW2.9 kmh NW 4.9 mph7.9 kmh 29.16 in987.5 mb 0.00 in0.0 mm 0.00 in0.0 mm 0.00 in0.0 mm
12:40 AM 77.2°F25.1°C 68.3°F20.2°C 74% 2.9 mph N4.7 kmh N 7.4 mph11.9 kmh 29.16 in987.5 mb 0.00 in0.0 mm 0.00 in0.0 mm 0.00 in0.0 mm
12:50 AM 77.2°F25.1°C 68.4°F20.2°C 74% 3.8 mph N6.1 kmh N 7.4 mph11.9 kmh 29.16 in987.5 mb 0.00 in0.0 mm 0.00 in0.0 mm 0.00 in0.0 mm
12:55 AM 77.2°F25.1°C 68.3°F20.2°C 74% 2.7 mph N4.3 kmh N 4.9 mph7.9 kmh 29.16 in987.5 mb 0.00 in0.0 mm 0.00 in0.0 mm 0.00 in0.0 mm
01:00 AM 77.2°F25.1°C 68.6°F20.3°C 75% 1.6 mph N2.6 kmh N 4.9 mph7.9 kmh 29.15 in987.1 mb 0.00 in0.0 mm 0.00 in0.0 mm 0.00 in0.0 mm
01:05 AM 77.0°F25.0°C 68.5°F20.3°C 75% 2.1 mph N3.4 kmh N 4.9 mph7.9 kmh 29.15 in987.1 mb 0.00 in0.0 mm 0.00 in0.0 mm 0.00 in0.0 mm
01:10 AM 77.0°F25.0°C 68.5°F20.3°C 75% 1.7 mph NW2.7 kmh NW 4.9 mph7.9 kmh 29.16 in987.5 mb 0.00 in0.0 mm 0.00 in0.0 mm 0.00 in0.0 mm
01:15 AM 77.0°F25.0°C 68.6°F20.3°C 76% 0.7 mph NE1.1 kmh NE 2.5 mph4.0 kmh 29.16 in987.5 mb 0.00 in0.0 mm 0.00 in0.0 mm 0.00 in0.0 mm
01:20 AM 76.8°F24.9°C 69.0°F20.6°C 77% 0.8 mph NNW1.3 kmh NNW 2.5 mph4.0 kmh 29.15 in987.1 mb 0.00 in0.0 mm 0.00 in0.0 mm 0.00 in0.0 mm
01:25 AM 76.8°F24.9°C 69.4°F20.8°C 78% 1.8 mph N2.9 kmh N 4.9 mph7.9 kmh 29.15 in987.1 mb 0.00 in0.0 mm 0.00 in0.0 mm 0.00 in0.0 mm
01:30 AM 76.5°F24.7°C 69.1°F20.6°C 78% 1.7 mph N2.7 kmh N 4.9 mph7.9 kmh 29.15 in987.1 mb 0.00 in0.0 mm 0.00 in0.0 mm 0.00 in0.0 mm
01:35 AM 76.3°F24.6°C 69.3°F20.7°C 79% 2.1 mph NNW3.4 kmh NNW 4.9 mph7.9 kmh 29.15 in987.1 mb 0.00 in0.0 mm 0.00 in0.0 mm 0.00 in0.0 mm
01:40 AM 76.2°F24.6°C 69.2°F20.7°C 79% 2.7 mph NNW4.3 kmh NNW 7.4 mph11.9 kmh 29.15 in987.1 mb 0.00 in0.0 mm 0.00 in0.0 mm 0.00 in0.0 mm
01:45 AM 76.1°F24.5°C 69.2°F20.7°C 79% 0.6 mph NNW1.0 kmh NNW 2.5 mph4.0 kmh 29.15 in987.1 mb 0.00 in0.0 mm 0.00 in0.0 mm 0.00 in0.0 mm
01:50 AM 76.0°F24.4°C 69.5°F20.8°C 80% 1.5 mph NW2.4 kmh NW 4.9 mph7.9 kmh 29.15 in987.1 mb 0.00 in0.0 mm 0.00 in0.0 mm 0.00 in0.0 mm
01:55 AM 75.9°F24.4°C 69.6°F20.9°C 81% 0.4 mph NW0.6 kmh NW 2.5 mph4.0 kmh 29.15 in987.1 mb 0.00 in0.0 mm 0.00 in0.0 mm 0.00 in0.0 mm
02:00 AM 75.9°F24.4°C 69.6°F20.9°C 81% 0.6 mph N1.0 kmh N 2.5 mph4.0 kmh 29.15 in987.1 mb 0.00 in0.0 mm 0.00 in0.0 mm 0.00 in0.0 mm
02:05 AM 75.9°F24.4°C 69.6°F20.9°C 81% 2.5 mph NNW4.0 kmh NNW 2.5 mph4.0 kmh 29.14 in986.8 mb 0.00 in0.0 mm 0.00 in0.0 mm 0.00 in0.0 mm
02:10 AM 75.8°F24.3°C 69.6°F20.9°C 81% Calm Calm -- 29.15 in987.1 mb 0.00 in0.0 mm 0.00 in0.0 mm 0.00 in0.0 mm
02:15 AM 75.7°F24.3°C 69.4°F20.8°C 81% 0.1 mph N0.2 kmh N 2.5 mph4.0 kmh 29.15 in987.1 mb 0.00 in0.0 mm 0.00 in0.0 mm 0.00 in0.0 mm
02:20 AM 75.7°F24.3°C 69.4°F20.8°C 81% 0.7 mph N1.1 kmh N 2.5 mph4.0 kmh 29.14 in986.8 mb 0.00 in0.0 mm 0.00 in0.0 mm 0.00 in0.0 mm
02:25 AM 75.7°F24.3°C 69.4°F20.8°C 81% 1.0 mph N1.6 kmh N 4.9 mph7.9 kmh 29.14 in986.8 mb 0.00 in0.0 mm 0.00 in0.0 mm 0.00 in0.0 mm
02:30 AM 75.8°F24.3°C 69.5°F20.8°C 81% 0.8 mph N1.3 kmh N 2.5 mph4.0 kmh 29.14 in986.8 mb 0.00 in0.0 mm 0.00 in0.0 mm 0.00 in0.0 mm
02:35 AM 75.9°F24.4°C 69.6°F20.9°C 81% 0.9 mph NNE1.4 kmh NNE 2.5 mph4.0 kmh 29.14 in986.8 mb 0.00 in0.0 mm 0.00 in0.0 mm 0.00 in0.0 mm
02:40 AM 75.9°F24.4°C 69.6°F20.9°C 81% Calm Calm -- 29.13 in986.5 mb 0.00 in0.0 mm 0.00 in0.0 mm 0.00 in0.0 mm
02:45 AM 75.9°F24.4°C 69.8°F21.0°C 82% 0.5 mph NW0.8 kmh NW 2.5 mph4.0 kmh 29.13 in986.5 mb 0.00 in0.0 mm 0.00 in0.0 mm 0.00 in0.0 mm
02:50 AM 75.9°F24.4°C 70.0°F21.1°C 82% 2.5 mph NW4.0 kmh NW 4.9 mph7.9 kmh 29.13 in986.5 mb 0.00 in0.0 mm 0.00 in0.0 mm 0.00 in0.0 mm
02:55 AM 75.9°F24.4°C 70.0°F21.1°C 82% 1.7 mph N2.7 kmh N 4.9 mph7.9 kmh 29.13 in986.5 mb 0.00 in0.0 mm 0.00 in0.0 mm 0.00 in0.0 mm
03:00 AM 75.9°F24.4°C 70.0°F21.1°C 82% 1.8 mph NNW2.9 kmh NNW 4.9 mph7.9 kmh 29.13 in986.5 mb 0.00 in0.0 mm 0.00 in0.0 mm 0.00 in0.0 mm
03:05 AM 75.9°F24.4°C 70.0°F21.1°C 82% 1.2 mph N1.9 kmh N 7.4 mph11.9 kmh 29.12 in986.1 mb 0.00 in0.0 mm 0.00 in0.0 mm 0.00 in0.0 mm
03:10 AM 75.9°F24.4°C 70.0°F21.1°C 82% 1.3 mph N2.1 kmh N 2.5 mph4.0 kmh 29.12 in986.1 mb 0.00 in0.0 mm 0.00 in0.0 mm 0.00 in0.0 mm
03:15 AM 75.7°F24.3°C 69.8°F21.0°C 82% 1.3 mph N2.1 kmh N 4.9 mph7.9 kmh 29.11 in985.8 mb 0.00 in0.0 mm 0.00 in0.0 mm 0.00 in0.0 mm
03:20 AM 75.7°F24.3°C 69.8°F21.0°C 82% 2.5 mph NNW4.0 kmh NNW 4.9 mph7.9 kmh 29.11 in985.8 mb 0.00 in0.0 mm 0.00 in0.0 mm 0.00 in0.0 mm
03:25 AM 75.6°F24.2°C 69.8°F21.0°C 82% 1.7 mph N2.7 kmh N 4.9 mph7.9 kmh 29.11 in985.8 mb 0.00 in0.0 mm 0.00 in0.0 mm 0.00 in0.0 mm
03:30 AM 75.6°F24.2°C 70.0°F21.1°C 83% 1.2 mph N1.9 kmh N 4.9 mph7.9 kmh 29.10 in985.4 mb 0.00 in0.0 mm 0.00 in0.0 mm 0.00 in0.0 mm
03:35 AM 75.4°F24.1°C 70.1°F21.2°C 84% 0.9 mph NW1.4 kmh NW 4.9 mph7.9 kmh 29.10 in985.4 mb 0.00 in0.0 mm 0.00 in0.0 mm 0.00 in0.0 mm
03:40 AM 75.4°F24.1°C 70.2°F21.2°C 84% 0.7 mph NW1.1 kmh NW 4.9 mph7.9 kmh 29.10 in985.4 mb 0.00 in0.0 mm 0.00 in0.0 mm 0.00 in0.0 mm
03:45 AM 75.2°F24.0°C 70.0°F21.1°C 84% 2.4 mph NW3.9 kmh NW 7.4 mph11.9 kmh 29.10 in985.4 mb 0.00 in0.0 mm 0.00 in0.0 mm 0.00 in0.0 mm
03:50 AM 75.2°F24.0°C 70.1°F21.2°C 84% 0.7 mph NNW1.1 kmh NNW 2.5 mph4.0 kmh 29.10 in985.4 mb 0.00 in0.0 mm 0.00 in0.0 mm 0.00 in0.0 mm
03:55 AM 75.2°F24.0°C 70.4°F21.3°C 85% 1.2 mph NNE1.9 kmh NNE 4.9 mph7.9 kmh 29.10 in985.4 mb 0.00 in0.0 mm 0.00 in0.0 mm 0.00 in0.0 mm
04:00 AM 75.2°F24.0°C 70.4°F21.3°C 85% 1.0 mph N1.6 kmh N 2.5 mph4.0 kmh 29.09 in985.1 mb 0.00 in0.0 mm 0.00 in0.0 mm 0.00 in0.0 mm
04:05 AM 75.1°F23.9°C 70.4°F21.3°C 86% 1.8 mph NNW2.9 kmh NNW 4.9 mph7.9 kmh 29.08 in984.8 mb 0.00 in0.0 mm 0.00 in0.0 mm 0.00 in0.0 mm
04:10 AM 75.0°F23.9°C 70.5°F21.4°C 86% 1.5 mph NNW2.4 kmh NNW 4.9 mph7.9 kmh 29.09 in985.1 mb 0.00 in0.0 mm 0.00 in0.0 mm 0.00 in0.0 mm
04:15 AM 75.0°F23.9°C 70.4°F21.3°C 86% 0.5 mph NE0.8 kmh NE 4.9 mph7.9 kmh 29.09 in985.1 mb 0.00 in0.0 mm 0.00 in0.0 mm 0.00 in0.0 mm
04:20 AM 75.0°F23.9°C 70.3°F21.3°C 85% 0.5 mph NW0.8 kmh NW 2.5 mph4.0 kmh 29.09 in985.1 mb 0.00 in0.0 mm 0.00 in0.0 mm 0.00 in0.0 mm
04:25 AM 75.0°F23.9°C 70.5°F21.4°C 86% 3.2 mph NW5.1 kmh NW 7.4 mph11.9 kmh 29.09 in985.1 mb 0.00 in0.0 mm 0.00 in0.0 mm 0.00 in0.0 mm
04:30 AM 75.0°F23.9°C 70.5°F21.4°C 86% 1.9 mph N3.1 kmh N 4.9 mph7.9 kmh 29.09 in985.1 mb 0.00 in0.0 mm 0.00 in0.0 mm 0.00 in0.0 mm
04:35 AM 74.8°F23.8°C 70.7°F21.5°C 87% 1.4 mph NNW2.3 kmh NNW 4.9 mph7.9 kmh 29.09 in985.1 mb 0.00 in0.0 mm 0.00 in0.0 mm 0.00 in0.0 mm
04:40 AM 74.8°F23.8°C 70.7°F21.5°C 87% 1.7 mph NNE2.7 kmh NNE 4.9 mph7.9 kmh 29.08 in984.8 mb 0.00 in0.0 mm 0.00 in0.0 mm 0.00 in0.0 mm
04:45 AM 74.8°F23.8°C 70.7°F21.5°C 87% 3.0 mph N4.8 kmh N 4.9 mph7.9 kmh 29.08 in984.8 mb 0.00 in0.0 mm 0.00 in0.0 mm 0.00 in0.0 mm
04:50 AM 74.8°F23.8°C 70.7°F21.5°C 87% 1.9 mph NNW3.1 kmh NNW 4.9 mph7.9 kmh 29.08 in984.8 mb 0.00 in0.0 mm 0.00 in0.0 mm 0.00 in0.0 mm
04:55 AM 74.8°F23.8°C 70.9°F21.6°C 88% 1.9 mph NW3.1 kmh NW 4.9 mph7.9 kmh 29.08 in984.8 mb 0.00 in0.0 mm 0.00 in0.0 mm 0.00 in0.0 mm
05:00 AM 74.8°F23.8°C 71.0°F21.7°C 88% 1.7 mph N2.7 kmh N 4.9 mph7.9 kmh 29.08 in984.8 mb 0.00 in0.0 mm 0.00 in0.0 mm 0.00 in0.0 mm
05:05 AM 74.8°F23.8°C 71.0°F21.7°C 88% 0.6 mph NW1.0 kmh NW 4.9 mph7.9 kmh 29.08 in984.8 mb 0.00 in0.0 mm 0.00 in0.0 mm 0.00 in0.0 mm
05:10 AM 74.8°F23.8°C 71.0°F21.7°C 88% 1.6 mph NNW2.6 kmh NNW 4.9 mph7.9 kmh 29.09 in985.1 mb 0.00 in0.0 mm 0.00 in0.0 mm 0.00 in0.0 mm
05:15 AM 74.8°F23.8°C 71.0°F21.7°C 88% 2.0 mph NNW3.2 kmh NNW 4.9 mph7.9 kmh 29.08 in984.8 mb 0.00 in0.0 mm 0.00 in0.0 mm 0.00 in0.0 mm
05:20 AM 74.8°F23.8°C 70.9°F21.6°C 88% 1.5 mph NNW2.4 kmh NNW 7.4 mph11.9 kmh 29.08 in984.8 mb 0.00 in0.0 mm 0.00 in0.0 mm 0.00 in0.0 mm
05:25 AM 74.8°F23.8°C 70.7°F21.5°C 87% 0.8 mph NW1.3 kmh NW 4.9 mph7.9 kmh 29.08 in984.8 mb 0.00 in0.0 mm 0.00 in0.0 mm 0.00 in0.0 mm
05:30 AM 74.8°F23.8°C 70.7°F21.5°C 87% 1.2 mph NW1.9 kmh NW 7.4 mph11.9 kmh 29.08 in984.8 mb 0.00 in0.0 mm 0.00 in0.0 mm 0.00 in0.0 mm
05:35 AM 75.4°F24.1°C 71.3°F21.8°C 87% 1.8 mph N2.9 kmh N 4.9 mph7.9 kmh 29.09 in985.1 mb 0.00 in0.0 mm 0.00 in0.0 mm 0.00 in0.0 mm
05:40 AM 75.4°F24.1°C 71.2°F21.8°C 87% 2.3 mph NW3.7 kmh NW 7.4 mph11.9 kmh 29.08 in984.8 mb 0.00 in0.0 mm 0.00 in0.0 mm 0.00 in0.0 mm
05:45 AM 75.4°F24.1°C 70.9°F21.6°C 86% 1.6 mph NW2.6 kmh NW 4.9 mph7.9 kmh 29.09 in985.1 mb 0.00 in0.0 mm 0.00 in0.0 mm 0.00 in0.0 mm
05:50 AM 75.4°F24.1°C 70.9°F21.6°C 86% 3.3 mph N5.3 kmh N 7.4 mph11.9 kmh 29.08 in984.8 mb 0.00 in0.0 mm 0.00 in0.0 mm 0.00 in0.0 mm
05:55 AM 75.4°F24.1°C 70.9°F21.6°C 86% 3.8 mph NNW6.1 kmh NNW 4.9 mph7.9 kmh 29.09 in985.1 mb 0.00 in0.0 mm 0.00 in0.0 mm 0.00 in0.0 mm
06:00 AM 75.4°F24.1°C 70.9°F21.6°C 86% 2.8 mph NW4.5 kmh NW 7.4 mph11.9 kmh 29.08 in984.8 mb 0.00 in0.0 mm 0.00 in0.0 mm 0.00 in0.0 mm
06:05 AM 75.4°F24.1°C 70.9°F21.6°C 86% 1.3 mph N2.1 kmh N 4.9 mph7.9 kmh 29.09 in985.1 mb 0.00 in0.0 mm 0.00 in0.0 mm 0.00 in0.0 mm
06:10 AM 75.4°F24.1°C 71.1°F21.7°C 87% 1.4 mph NNW2.3 kmh NNW 4.9 mph7.9 kmh 29.09 in985.1 mb 0.00 in0.0 mm 0.00 in0.0 mm 0.00 in0.0 mm
06:15 AM 75.4°F24.1°C 71.3°F21.8°C 87% 1.4 mph NNW2.3 kmh NNW 2.5 mph4.0 kmh 29.09 in985.1 mb 0.00 in0.0 mm 0.00 in0.0 mm 0.00 in0.0 mm
06:20 AM 75.4°F24.1°C 71.3°F21.8°C 87% 0.8 mph NW1.3 kmh NW 2.5 mph4.0 kmh 29.09 in985.1 mb 0.00 in0.0 mm 0.00 in0.0 mm 0.00 in0.0 mm
06:25 AM 75.4°F24.1°C 71.3°F21.8°C 87% 1.4 mph NNW2.3 kmh NNW 7.4 mph11.9 kmh 29.09 in985.1 mb 0.00 in0.0 mm 0.00 in0.0 mm 0.00 in0.0 mm
06:30 AM 75.4°F24.1°C 71.3°F21.8°C 87% 2.2 mph NNW3.5 kmh NNW 4.9 mph7.9 kmh 29.09 in985.1 mb 0.00 in0.0 mm 0.00 in0.0 mm 0.00 in0.0 mm
06:35 AM 75.5°F24.2°C 71.2°F21.8°C 86% 2.9 mph NW4.7 kmh NW 7.4 mph11.9 kmh 29.09 in985.1 mb 0.00 in0.0 mm 0.00 in0.0 mm 0.00 in0.0 mm
06:40 AM 75.5°F24.2°C 71.0°F21.7°C 86% 2.4 mph NNW3.9 kmh NNW 7.4 mph11.9 kmh 29.09 in985.1 mb 0.00 in0.0 mm 0.00 in0.0 mm 0.00 in0.0 mm
06:45 AM 75.4°F24.1°C 71.3°F21.8°C 87% 1.5 mph NW2.4 kmh NW 4.9 mph7.9 kmh 29.09 in985.1 mb 0.00 in0.0 mm 0.00 in0.0 mm 0.00 in0.0 mm
06:50 AM 75.4°F24.1°C 71.3°F21.8°C 87% 0.2 mph WNW0.3 kmh WNW 2.5 mph4.0 kmh 29.09 in985.1 mb 0.00 in0.0 mm 0.00 in0.0 mm 0.00 in0.0 mm
06:55 AM 75.4°F24.1°C 71.3°F21.8°C 87% 1.6 mph WNW2.6 kmh WNW 4.9 mph7.9 kmh 29.09 in985.1 mb 0.00 in0.0 mm 0.00 in0.0 mm 0.00 in0.0 mm
07:00 AM 75.4°F24.1°C 71.3°F21.8°C 87% 1.6 mph N2.6 kmh N 4.9 mph7.9 kmh 29.09 in985.1 mb 0.00 in0.0 mm 0.00 in0.0 mm 0.00 in0.0 mm
07:05 AM 75.4°F24.1°C 71.3°F21.8°C 87% 2.2 mph 3.5 kmh 4.9 mph7.9 kmh 29.09 in985.1 mb 0.00 in0.0 mm 0.00 in0.0 mm 0.00 in0.0 mm
07:10 AM 75.4°F24.1°C 71.5°F21.9°C 88% 1.8 mph N2.9 kmh N 4.9 mph7.9 kmh 29.10 in985.4 mb 0.00 in0.0 mm 0.00 in0.0 mm 0.00 in0.0 mm
07:15 AM 75.4°F24.1°C 71.6°F22.0°C 88% 1.7 mph NE2.7 kmh NE 4.9 mph7.9 kmh 29.10 in985.4 mb 0.00 in0.0 mm 0.00 in0.0 mm 0.00 in0.0 mm
07:20 AM 75.4°F24.1°C 71.6°F22.0°C 88% 1.2 mph NNW1.9 kmh NNW 4.9 mph7.9 kmh 29.10 in985.4 mb 0.00 in0.0 mm 0.00 in0.0 mm 0.00 in0.0 mm
07:25 AM 75.4°F24.1°C 71.6°F22.0°C 88% 1.5 mph NNE2.4 kmh NNE 2.5 mph4.0 kmh 29.10 in985.4 mb 0.00 in0.0 mm 0.00 in0.0 mm 0.00 in0.0 mm
07:30 AM 75.4°F24.1°C 71.6°F22.0°C 88% 0.6 mph N1.0 kmh N 2.5 mph4.0 kmh 29.10 in985.4 mb 0.00 in0.0 mm 0.00 in0.0 mm 0.00 in0.0 mm
07:35 AM 75.4°F24.1°C 71.6°F22.0°C 88% 1.6 mph N2.6 kmh N 4.9 mph7.9 kmh 29.10 in985.4 mb 0.00 in0.0 mm 0.00 in0.0 mm 0.00 in0.0 mm
07:40 AM 75.4°F24.1°C 71.4°F21.9°C 88% 2.4 mph ENE3.9 kmh ENE 4.9 mph7.9 kmh 29.10 in985.4 mb 0.00 in0.0 mm 0.00 in0.0 mm 0.00 in0.0 mm
07:45 AM 75.4°F24.1°C 71.1°F21.7°C 87% 1.1 mph N1.8 kmh N 4.9 mph7.9 kmh 29.10 in985.4 mb 0.00 in0.0 mm 0.00 in0.0 mm 0.00 in0.0 mm
07:50 AM 75.6°F24.2°C 71.1°F21.7°C 86% 1.7 mph NNW2.7 kmh NNW 7.4 mph11.9 kmh 29.11 in985.8 mb 0.00 in0.0 mm 0.00 in0.0 mm 0.00 in0.0 mm
07:55 AM 75.8°F24.3°C 71.3°F21.8°C 86% 1.8 mph N2.9 kmh N 4.9 mph7.9 kmh 29.11 in985.8 mb 0.00 in0.0 mm 0.00 in0.0 mm 0.00 in0.0 mm
08:00 AM 75.9°F24.4°C 71.4°F21.9°C 86% 2.1 mph 3.4 kmh 7.4 mph11.9 kmh 29.11 in985.8 mb 0.00 in0.0 mm 0.00 in0.0 mm 0.00 in0.0 mm
08:05 AM 75.9°F24.4°C 71.5°F21.9°C 86% 2.7 mph NNW4.3 kmh NNW 4.9 mph7.9 kmh 29.11 in985.8 mb 0.00 in0.0 mm 0.00 in0.0 mm 0.00 in0.0 mm
08:10 AM 75.9°F24.4°C 71.4°F21.9°C 86% 2.7 mph N4.3 kmh N 4.9 mph7.9 kmh 29.11 in985.8 mb 0.00 in0.0 mm 0.00 in0.0 mm 0.00 in0.0 mm
08:15 AM 76.3°F24.6°C 71.8°F22.1°C 86% 2.8 mph NW4.5 kmh NW 7.4 mph11.9 kmh 29.10 in985.4 mb 0.00 in0.0 mm 0.00 in0.0 mm 0.00 in0.0 mm
08:20 AM 76.5°F24.7°C 71.9°F22.2°C 86% 1.8 mph NNW2.9 kmh NNW 4.9 mph7.9 kmh 29.11 in985.8 mb 0.00 in0.0 mm 0.00 in0.0 mm 0.00 in0.0 mm
08:25 AM 76.5°F24.7°C 71.7°F22.1°C 85% 1.4 mph N2.3 kmh N 4.9 mph7.9 kmh 29.10 in985.4 mb 0.00 in0.0 mm 0.00 in0.0 mm 0.00 in0.0 mm
08:30 AM 76.5°F24.7°C 71.8°F22.1°C 85% 1.4 mph NW2.3 kmh NW 4.9 mph7.9 kmh 29.11 in985.8 mb 0.00 in0.0 mm 0.00 in0.0 mm 0.00 in0.0 mm
08:35 AM 76.7°F24.8°C 71.8°F22.1°C 85% 1.9 mph NW3.1 kmh NW 4.9 mph7.9 kmh 29.11 in985.8 mb 0.00 in0.0 mm 0.00 in0.0 mm 0.00 in0.0 mm
08:40 AM 76.8°F24.9°C 71.8°F22.1°C 84% 1.4 mph NNW2.3 kmh NNW 4.9 mph7.9 kmh 29.11 in985.8 mb 0.00 in0.0 mm 0.00 in0.0 mm 0.00 in0.0 mm
08:45 AM 76.8°F24.9°C 72.0°F22.2°C 85% 2.1 mph NW3.4 kmh NW 4.9 mph7.9 kmh 29.11 in985.8 mb 0.00 in0.0 mm 0.00 in0.0 mm 0.00 in0.0 mm
08:50 AM 76.8°F24.9°C 72.1°F22.3°C 85% 1.3 mph WNW2.1 kmh WNW 4.9 mph7.9 kmh 29.11 in985.8 mb 0.00 in0.0 mm 0.00 in0.0 mm 0.00 in0.0 mm
08:55 AM 76.8°F24.9°C 72.1°F22.3°C 85% 1.9 mph W3.1 kmh W 4.9 mph7.9 kmh 29.11 in985.8 mb 0.00 in0.0 mm 0.00 in0.0 mm 0.00 in0.0 mm
09:00 AM 76.8°F24.9°C 72.3°F22.4°C 86% 1.3 mph NW2.1 kmh NW 4.9 mph7.9 kmh 29.11 in985.8 mb 0.00 in0.0 mm 0.00 in0.0 mm 0.00 in0.0 mm
09:05 AM 76.8°F24.9°C 71.9°F22.2°C 85% 1.6 mph WNW2.6 kmh WNW 4.9 mph7.9 kmh 29.12 in986.1 mb 0.00 in0.0 mm 0.00 in0.0 mm 0.00 in0.0 mm
09:10 AM 76.8°F24.9°C 71.7°F22.1°C 84% 2.0 mph WNW3.2 kmh WNW 4.9 mph7.9 kmh 29.11 in985.8 mb 0.00 in0.0 mm 0.00 in0.0 mm 0.00 in0.0 mm
09:15 AM 76.8°F24.9°C 71.6°F22.0°C 84% 1.9 mph WNW3.1 kmh WNW 4.9 mph7.9 kmh 29.11 in985.8 mb 0.00 in0.0 mm 0.00 in0.0 mm 0.00 in0.0 mm
09:20 AM 77.0°F25.0°C 71.7°F22.1°C 84% 1.5 mph WNW2.4 kmh WNW 4.9 mph7.9 kmh 29.11 in985.8 mb 0.00 in0.0 mm 0.00 in0.0 mm 0.00 in0.0 mm
09:25 AM 77.0°F25.0°C 71.4°F21.9°C 83% 1.8 mph W2.9 kmh W 7.4 mph11.9 kmh 29.11 in985.8 mb 0.00 in0.0 mm 0.00 in0.0 mm 0.00 in0.0 mm
09:30 AM 77.0°F25.0°C 71.1°F21.7°C 82% 2.5 mph W4.0 kmh W 4.9 mph7.9 kmh 29.12 in986.1 mb 0.00 in0.0 mm 0.00 in0.0 mm 0.00 in0.0 mm
09:35 AM 77.0°F25.0°C 71.5°F21.9°C 83% 3.1 mph W5.0 kmh W 4.9 mph7.9 kmh 29.11 in985.8 mb 0.00 in0.0 mm 0.00 in0.0 mm 0.00 in0.0 mm
09:40 AM 77.2°F25.1°C 71.6°F22.0°C 83% 1.7 mph NW2.7 kmh NW 4.9 mph7.9 kmh 29.11 in985.8 mb 0.00 in0.0 mm 0.00 in0.0 mm 0.00 in0.0 mm
09:45 AM 77.2°F25.1°C 71.5°F21.9°C 83% 0.4 mph WNW0.6 kmh WNW 2.5 mph4.0 kmh 29.12 in986.1 mb 0.00 in0.0 mm 0.00 in0.0 mm 0.00 in0.0 mm
09:50 AM 77.2°F25.1°C 71.3°F21.8°C 82% 1.0 mph WNW1.6 kmh WNW 4.9 mph7.9 kmh 29.11 in985.8 mb 0.00 in0.0 mm 0.00 in0.0 mm 0.00 in0.0 mm
09:55 AM 77.2°F25.1°C 71.3°F21.8°C 82% 1.9 mph NW3.1 kmh NW 4.9 mph7.9 kmh 29.12 in986.1 mb 0.00 in0.0 mm 0.00 in0.0 mm 0.00 in0.0 mm
10:00 AM 77.2°F25.1°C 71.1°F21.7°C 82% 2.2 mph NW3.5 kmh NW 4.9 mph7.9 kmh 29.11 in985.8 mb 0.00 in0.0 mm 0.00 in0.0 mm 0.00 in0.0 mm
10:05 AM 77.2°F25.1°C 70.6°F21.4°C 80% 3.1 mph NW5.0 kmh NW 4.9 mph7.9 kmh 29.12 in986.1 mb 0.00 in0.0 mm 0.00 in0.0 mm 0.00 in0.0 mm
10:10 AM 77.5°F25.3°C 69.3°F20.7°C 76% 1.9 mph W3.1 kmh W 4.9 mph7.9 kmh 29.12 in986.1 mb 0.00 in0.0 mm 0.00 in0.0 mm 0.00 in0.0 mm
10:15 AM 78.0°F25.6°C 68.8°F20.4°C 73% 2.1 mph NW3.4 kmh NW 4.9 mph7.9 kmh 29.12 in986.1 mb 0.00 in0.0 mm 0.00 in0.0 mm 0.00 in0.0 mm
10:20 AM 79.2°F26.2°C 70.6°F21.4°C 75% 1.7 mph W2.7 kmh W 4.9 mph7.9 kmh 29.12 in986.1 mb 0.00 in0.0 mm 0.00 in0.0 mm 0.00 in0.0 mm
10:25 AM 79.3°F26.3°C 70.5°F21.4°C 74% 1.1 mph WSW1.8 kmh WSW 4.9 mph7.9 kmh 29.12 in986.1 mb 0.00 in0.0 mm 0.00 in0.0 mm 0.00 in0.0 mm
10:30 AM 79.5°F26.4°C 70.0°F21.1°C 73% 0.3 mph W0.5 kmh W 2.5 mph4.0 kmh 29.12 in986.1 mb 0.00 in0.0 mm 0.00 in0.0 mm 0.00 in0.0 mm
10:35 AM 79.7°F26.5°C 70.0°F21.1°C 72% 4.1 mph NW6.6 kmh NW 7.4 mph11.9 kmh 29.12 in986.1 mb 0.00 in0.0 mm 0.00 in0.0 mm 0.00 in0.0 mm
10:40 AM 79.6°F26.4°C 70.4°F21.3°C 74% 1.7 mph NW2.7 kmh NW 4.9 mph7.9 kmh 29.12 in986.1 mb 0.00 in0.0 mm 0.00 in0.0 mm 0.00 in0.0 mm
10:45 AM 79.7°F26.5°C 70.4°F21.3°C 73% 1.9 mph NW3.1 kmh NW 4.9 mph7.9 kmh 29.12 in986.1 mb 0.00 in0.0 mm 0.00 in0.0 mm 0.00 in0.0 mm
10:50 AM 79.7°F26.5°C 70.7°F21.5°C 74% 1.6 mph W2.6 kmh W 4.9 mph7.9 kmh 29.12 in986.1 mb 0.00 in0.0 mm 0.00 in0.0 mm 0.00 in0.0 mm
10:55 AM 79.7°F26.5°C 70.3°F21.3°C 73% 0.3 mph N0.5 kmh N 2.5 mph4.0 kmh 29.12 in986.1 mb 0.00 in0.0 mm 0.00 in0.0 mm 0.00 in0.0 mm
11:00 AM 80.9°F27.2°C 71.1°F21.7°C 72% 0.7 mph WNW1.1 kmh WNW 2.5 mph4.0 kmh 29.12 in986.1 mb 0.00 in0.0 mm 0.00 in0.0 mm 0.00 in0.0 mm
11:05 AM 80.8°F27.1°C 71.0°F21.7°C 72% 1.1 mph NNW1.8 kmh NNW 4.9 mph7.9 kmh 29.12 in986.1 mb 0.00 in0.0 mm 0.00 in0.0 mm 0.00 in0.0 mm
11:10 AM 80.7°F27.1°C 71.2°F21.8°C 73% 1.9 mph NW3.1 kmh NW 4.9 mph7.9 kmh 29.12 in986.1 mb 0.00 in0.0 mm 0.00 in0.0 mm 0.00 in0.0 mm
11:15 AM 80.4°F26.9°C 70.9°F21.6°C 73% 1.8 mph NNW2.9 kmh NNW 4.9 mph7.9 kmh 29.12 in986.1 mb 0.00 in0.0 mm 0.00 in0.0 mm 0.00 in0.0 mm
11:20 AM 79.7°F26.5°C 70.3°F21.3°C 73% 2.2 mph N3.5 kmh N 4.9 mph7.9 kmh 29.13 in986.5 mb 0.00 in0.0 mm 0.00 in0.0 mm 0.00 in0.0 mm
11:25 AM 79.7°F26.5°C 70.3°F21.3°C 73% Calm Calm -- 29.13 in986.5 mb 0.00 in0.0 mm 0.00 in0.0 mm 0.00 in0.0 mm
11:30 AM 79.7°F26.5°C 69.9°F21.1°C 72% 1.8 mph NNW2.9 kmh NNW 7.4 mph11.9 kmh 29.12 in986.1 mb 0.00 in0.0 mm 0.00 in0.0 mm 0.00 in0.0 mm
11:35 AM 80.0°F26.7°C 69.3°F20.7°C 70% 2.1 mph NNW3.4 kmh NNW 4.9 mph7.9 kmh 29.13 in986.5 mb 0.00 in0.0 mm 0.00 in0.0 mm 0.00 in0.0 mm
11:40 AM 81.9°F27.7°C 71.0°F21.7°C 70% 0.4 mph W0.6 kmh W 2.5 mph4.0 kmh 29.13 in986.5 mb 0.00 in0.0 mm 0.00 in0.0 mm 0.00 in0.0 mm
11:45 AM 81.9°F27.7°C 70.9°F21.6°C 70% 0.2 mph W0.3 kmh W 2.5 mph4.0 kmh 29.13 in986.5 mb 0.00 in0.0 mm 0.00 in0.0 mm 0.00 in0.0 mm
11:50 AM 81.9°F27.7°C 70.7°F21.5°C 69% 0.9 mph NNW1.4 kmh NNW 2.5 mph4.0 kmh 29.13 in986.5 mb 0.00 in0.0 mm 0.00 in0.0 mm 0.00 in0.0 mm
11:55 AM 82.0°F27.8°C 71.2°F21.8°C 70% 1.3 mph NW2.1 kmh NW 2.5 mph4.0 kmh 29.13 in986.5 mb 0.00 in0.0 mm 0.00 in0.0 mm 0.00 in0.0 mm
12:00 PM 81.3°F27.4°C 71.4°F21.9°C 72% 0.1 mph W0.2 kmh W 2.5 mph4.0 kmh 29.12 in986.1 mb 0.00 in0.0 mm 0.00 in0.0 mm 0.00 in0.0 mm
12:05 PM 81.3°F27.4°C 71.4°F21.9°C 72% 0.6 mph W1.0 kmh W 4.9 mph7.9 kmh 29.12 in986.1 mb 0.00 in0.0 mm 0.00 in0.0 mm 0.00 in0.0 mm
12:10 PM 81.1°F27.3°C 71.2°F21.8°C 72% 0.4 mph W0.6 kmh W 2.5 mph4.0 kmh 29.12 in986.1 mb 0.00 in0.0 mm 0.00 in0.0 mm 0.00 in0.0 mm
12:15 PM 81.1°F27.3°C 71.5°F21.9°C 73% 0.1 mph W0.2 kmh W 2.5 mph4.0 kmh 29.12 in986.1 mb 0.00 in0.0 mm 0.00 in0.0 mm 0.00 in0.0 mm
12:20 PM 80.6°F27.0°C 71.1°F21.7°C 73% 0.2 mph W0.3 kmh W 2.5 mph4.0 kmh 29.12 in986.1 mb 0.00 in0.0 mm 0.00 in0.0 mm 0.00 in0.0 mm
12:25 PM 80.6°F27.0°C 71.1°F21.7°C 73% 0.6 mph W1.0 kmh W 4.9 mph7.9 kmh 29.12 in986.1 mb 0.00 in0.0 mm 0.00 in0.0 mm 0.00 in0.0 mm
12:30 PM 80.6°F27.0°C 71.1°F21.7°C 73% 0.1 mph W0.2 kmh W 2.5 mph4.0 kmh 29.12 in986.1 mb 0.00 in0.0 mm 0.00 in0.0 mm 0.00 in0.0 mm
12:35 PM 80.6°F27.0°C 71.1°F21.7°C 73% 1.3 mph W2.1 kmh W 2.5 mph4.0 kmh 29.13 in986.5 mb 0.00 in0.0 mm 0.00 in0.0 mm 0.00 in0.0 mm
12:40 PM 81.9°F27.7°C 71.7°F22.1°C 71% 1.7 mph W2.7 kmh W 4.9 mph7.9 kmh 29.13 in986.5 mb 0.00 in0.0 mm 0.00 in0.0 mm 0.00 in0.0 mm
12:45 PM 82.2°F27.9°C 71.1°F21.7°C 69% 1.3 mph WNW2.1 kmh WNW 7.4 mph11.9 kmh 29.13 in986.5 mb 0.00 in0.0 mm 0.00 in0.0 mm 0.00 in0.0 mm
12:50 PM 82.3°F27.9°C 71.0°F21.7°C 69% 0.5 mph NW0.8 kmh NW 2.5 mph4.0 kmh 29.12 in986.1 mb 0.00 in0.0 mm 0.00 in0.0 mm 0.00 in0.0 mm
12:55 PM 82.4°F28.0°C 71.0°F21.7°C 68% 0.2 mph W0.3 kmh W 2.5 mph4.0 kmh 29.12 in986.1 mb 0.00 in0.0 mm 0.00 in0.0 mm 0.00 in0.0 mm
01:00 PM 82.0°F27.8°C 70.8°F21.6°C 69% Calm Calm -- 29.12 in986.1 mb 0.00 in0.0 mm 0.00 in0.0 mm 0.00 in0.0 mm
01:05 PM 81.8°F27.7°C 71.0°F21.7°C 70% 0.2 mph WSW0.3 kmh WSW 2.5 mph4.0 kmh 29.12 in986.1 mb 0.00 in0.0 mm 0.00 in0.0 mm 0.00 in0.0 mm
01:10 PM 81.9°F27.7°C 71.0°F21.7°C 70% Calm Calm -- 29.12 in986.1 mb 0.00 in0.0 mm 0.00 in0.0 mm 0.00 in0.0 mm
01:15 PM 82.1°F27.8°C 70.1°F21.2°C 67% 1.4 mph NW2.3 kmh NW 7.4 mph11.9 kmh 29.12 in986.1 mb 0.00 in0.0 mm 0.00 in0.0 mm 0.00 in0.0 mm
01:20 PM 83.3°F28.5°C 70.6°F21.4°C 66% 2.1 mph W3.4 kmh W 4.9 mph7.9 kmh 29.12 in986.1 mb 0.00 in0.0 mm 0.00 in0.0 mm 0.00 in0.0 mm
01:25 PM 83.8°F28.8°C 71.3°F21.8°C 66% 1.3 mph W2.1 kmh W 4.9 mph7.9 kmh 29.12 in986.1 mb 0.00 in0.0 mm 0.00 in0.0 mm 0.00 in0.0 mm
01:30 PM 83.7°F28.7°C 72.0°F22.2°C 68% 0.6 mph W1.0 kmh W 2.5 mph4.0 kmh 29.12 in986.1 mb 0.00 in0.0 mm 0.00 in0.0 mm 0.00 in0.0 mm
01:35 PM 83.7°F28.7°C 71.5°F21.9°C 67% 0.5 mph WSW0.8 kmh WSW 4.9 mph7.9 kmh 29.12 in986.1 mb 0.00 in0.0 mm 0.00 in0.0 mm 0.00 in0.0 mm
01:40 PM 83.3°F28.5°C 71.6°F22.0°C 68% 1.8 mph WNW2.9 kmh WNW 4.9 mph7.9 kmh 29.12 in986.1 mb 0.00 in0.0 mm 0.00 in0.0 mm 0.00 in0.0 mm
01:45 PM 82.8°F28.2°C 71.3°F21.8°C 68% 1.3 mph WNW2.1 kmh WNW 4.9 mph7.9 kmh 29.11 in985.8 mb 0.00 in0.0 mm 0.00 in0.0 mm 0.00 in0.0 mm
01:50 PM 82.8°F28.2°C 71.6°F22.0°C 69% 1.0 mph WSW1.6 kmh WSW 4.9 mph7.9 kmh 29.11 in985.8 mb 0.00 in0.0 mm 0.00 in0.0 mm 0.00 in0.0 mm
01:55 PM 82.8°F28.2°C 71.5°F21.9°C 69% 1.0 mph W1.6 kmh W 4.9 mph7.9 kmh 29.11 in985.8 mb 0.00 in0.0 mm 0.00 in0.0 mm 0.00 in0.0 mm
02:00 PM 83.0°F28.3°C 71.5°F21.9°C 68% 0.4 mph W0.6 kmh W 2.5 mph4.0 kmh 29.11 in985.8 mb 0.00 in0.0 mm 0.00 in0.0 mm 0.00 in0.0 mm
02:05 PM 83.1°F28.4°C 71.1°F21.7°C 67% 0.8 mph W1.3 kmh W 4.9 mph7.9 kmh 29.11 in985.8 mb 0.00 in0.0 mm 0.00 in0.0 mm 0.00 in0.0 mm
02:10 PM 83.1°F28.4°C 71.5°F21.9°C 68% 0.7 mph WSW1.1 kmh WSW 4.9 mph7.9 kmh 29.11 in985.8 mb 0.00 in0.0 mm 0.00 in0.0 mm 0.00 in0.0 mm
02:15 PM 83.1°F28.4°C 71.8°F22.1°C 69% 2.6 mph W4.2 kmh W 7.4 mph11.9 kmh 29.10 in985.4 mb 0.00 in0.0 mm 0.00 in0.0 mm 0.00 in0.0 mm
02:20 PM 82.5°F28.1°C 71.7°F22.1°C 70% 1.9 mph WNW3.1 kmh WNW 4.9 mph7.9 kmh 29.10 in985.4 mb 0.00 in0.0 mm 0.00 in0.0 mm 0.00 in0.0 mm
02:25 PM 82.0°F27.8°C 71.4°F21.9°C 70% 0.2 mph WSW0.3 kmh WSW 2.5 mph4.0 kmh 29.10 in985.4 mb 0.00 in0.0 mm 0.00 in0.0 mm 0.00 in0.0 mm
02:30 PM 82.1°F27.8°C 70.9°F21.6°C 69% 0.8 mph WNW1.3 kmh WNW 4.9 mph7.9 kmh 29.10 in985.4 mb 0.00 in0.0 mm 0.00 in0.0 mm 0.00 in0.0 mm
02:35 PM 82.3°F27.9°C 71.0°F21.7°C 69% 0.6 mph WSW1.0 kmh WSW 2.5 mph4.0 kmh 29.10 in985.4 mb 0.00 in0.0 mm 0.00 in0.0 mm 0.00 in0.0 mm
02:40 PM 83.5°F28.6°C 71.4°F21.9°C 67% 1.5 mph W2.4 kmh W 4.9 mph7.9 kmh 29.09 in985.1 mb 0.00 in0.0 mm 0.00 in0.0 mm 0.00 in0.0 mm
02:45 PM 84.9°F29.4°C 70.8°F21.6°C 63% 0.5 mph W0.8 kmh W 2.5 mph4.0 kmh 29.09 in985.1 mb 0.00 in0.0 mm 0.00 in0.0 mm 0.00 in0.0 mm
02:50 PM 85.1°F29.5°C 70.5°F21.4°C 62% 0.5 mph NW0.8 kmh NW 2.5 mph4.0 kmh 29.09 in985.1 mb 0.00 in0.0 mm 0.00 in0.0 mm 0.00 in0.0 mm
02:55 PM 85.3°F29.6°C 70.5°F21.4°C 62% 3.3 mph NW5.3 kmh NW 4.9 mph7.9 kmh 29.10 in985.4 mb 0.00 in0.0 mm 0.00 in0.0 mm 0.00 in0.0 mm
03:00 PM 85.6°F29.8°C 71.2°F21.8°C 62% 0.6 mph WNW1.0 kmh WNW 2.5 mph4.0 kmh 29.09 in985.1 mb 0.00 in0.0 mm 0.00 in0.0 mm 0.00 in0.0 mm
03:05 PM 86.1°F30.1°C 71.0°F21.7°C 61% 0.6 mph NW1.0 kmh NW 2.5 mph4.0 kmh 29.09 in985.1 mb 0.00 in0.0 mm 0.00 in0.0 mm 0.00 in0.0 mm
03:10 PM 86.1°F30.1°C 70.9°F21.6°C 61% 0.3 mph W0.5 kmh W 2.5 mph4.0 kmh 29.09 in985.1 mb 0.00 in0.0 mm 0.00 in0.0 mm 0.00 in0.0 mm
03:15 PM 86.3°F30.2°C 70.2°F21.2°C 59% 0.2 mph W0.3 kmh W 2.5 mph4.0 kmh 29.09 in985.1 mb 0.00 in0.0 mm 0.00 in0.0 mm 0.00 in0.0 mm
03:20 PM 86.8°F30.4°C 69.5°F20.8°C 57% 1.2 mph WNW1.9 kmh WNW 2.5 mph4.0 kmh 29.08 in984.8 mb 0.00 in0.0 mm 0.00 in0.0 mm 0.00 in0.0 mm
03:25 PM 87.4°F30.8°C 70.2°F21.2°C 57% 0.5 mph W0.8 kmh W 2.5 mph4.0 kmh 29.08 in984.8 mb 0.00 in0.0 mm 0.00 in0.0 mm 0.00 in0.0 mm
03:30 PM 87.4°F30.8°C 69.4°F20.8°C 55% 0.4 mph WSW0.6 kmh WSW 2.5 mph4.0 kmh 29.08 in984.8 mb 0.00 in0.0 mm 0.00 in0.0 mm 0.00 in0.0 mm
03:35 PM 87.7°F30.9°C 68.9°F20.5°C 54% 0.5 mph W0.8 kmh W 2.5 mph4.0 kmh 29.08 in984.8 mb 0.00 in0.0 mm 0.00 in0.0 mm 0.00 in0.0 mm
03:40 PM 87.8°F31.0°C 68.4°F20.2°C 53% 3.2 mph W5.1 kmh W 4.9 mph7.9 kmh 29.08 in984.8 mb 0.00 in0.0 mm 0.00 in0.0 mm 0.00 in0.0 mm
03:45 PM 87.4°F30.8°C 68.9°F20.5°C 54% 0.7 mph W1.1 kmh W 2.5 mph4.0 kmh 29.08 in984.8 mb 0.00 in0.0 mm 0.00 in0.0 mm 0.00 in0.0 mm
03:50 PM 87.5°F30.8°C 68.9°F20.5°C 54% 1.7 mph NW2.7 kmh NW 4.9 mph7.9 kmh 29.07 in984.4 mb 0.00 in0.0 mm 0.00 in0.0 mm 0.00 in0.0 mm
03:55 PM 87.7°F30.9°C 69.3°F20.7°C 55% 1.3 mph W2.1 kmh W 4.9 mph7.9 kmh 29.08 in984.8 mb 0.00 in0.0 mm 0.00 in0.0 mm 0.00 in0.0 mm
04:00 PM 88.2°F31.2°C 69.5°F20.8°C 54% 1.7 mph W2.7 kmh W 4.9 mph7.9 kmh 29.07 in984.4 mb 0.00 in0.0 mm 0.00 in0.0 mm 0.00 in0.0 mm
04:05 PM 88.9°F31.6°C 69.2°F20.7°C 52% 1.4 mph W2.3 kmh W 4.9 mph7.9 kmh 29.07 in984.4 mb 0.00 in0.0 mm 0.00 in0.0 mm 0.00 in0.0 mm
04:10 PM 89.1°F31.7°C 68.8°F20.4°C 51% 2.7 mph WSW4.3 kmh WSW 7.4 mph11.9 kmh 29.08 in984.8 mb 0.00 in0.0 mm 0.00 in0.0 mm 0.00 in0.0 mm
04:15 PM 89.1°F31.7°C 68.5°F20.3°C 51% 0.8 mph W1.3 kmh W 4.9 mph7.9 kmh 29.08 in984.8 mb 0.00 in0.0 mm 0.00 in0.0 mm 0.00 in0.0 mm
04:20 PM 89.1°F31.7°C 68.9°F20.5°C 52% 2.0 mph W3.2 kmh W 7.4 mph11.9 kmh 29.07 in984.4 mb 0.00 in0.0 mm 0.00 in0.0 mm 0.00 in0.0 mm
04:25 PM 88.7°F31.5°C 68.1°F20.1°C 51% 3.4 mph W5.5 kmh W 7.4 mph11.9 kmh 29.07 in984.4 mb 0.00 in0.0 mm 0.00 in0.0 mm 0.00 in0.0 mm
04:30 PM 88.8°F31.6°C 67.9°F19.9°C 50% 1.0 mph W1.6 kmh W 2.5 mph4.0 kmh 29.08 in984.8 mb 0.00 in0.0 mm 0.00 in0.0 mm 0.00 in0.0 mm
04:35 PM 89.0°F31.7°C 68.4°F20.2°C 51% 1.6 mph W2.6 kmh W 4.9 mph7.9 kmh 29.07 in984.4 mb 0.00 in0.0 mm 0.00 in0.0 mm 0.00 in0.0 mm
04:40 PM 89.3°F31.8°C 68.4°F20.2°C 50% 1.4 mph NW2.3 kmh NW 7.4 mph11.9 kmh 29.07 in984.4 mb 0.00 in0.0 mm 0.00 in0.0 mm 0.00 in0.0 mm
04:45 PM 90.2°F32.3°C 71.4°F21.9°C 54% 2.8 mph NNW4.5 kmh NNW 4.9 mph7.9 kmh 29.07 in984.4 mb 0.00 in0.0 mm 0.00 in0.0 mm 0.00 in0.0 mm
04:50 PM 89.9°F32.2°C 71.9°F22.2°C 56% 1.0 mph N1.6 kmh N 2.5 mph4.0 kmh 29.07 in984.4 mb 0.00 in0.0 mm 0.00 in0.0 mm 0.00 in0.0 mm
04:55 PM 89.7°F32.1°C 71.3°F21.8°C 55% 3.4 mph NW5.5 kmh NW 7.4 mph11.9 kmh 29.07 in984.4 mb 0.00 in0.0 mm 0.00 in0.0 mm 0.00 in0.0 mm
05:00 PM 89.3°F31.8°C 71.3°F21.8°C 56% 1.5 mph NNW2.4 kmh NNW 4.9 mph7.9 kmh 29.07 in984.4 mb 0.00 in0.0 mm 0.00 in0.0 mm 0.00 in0.0 mm
05:05 PM 88.5°F31.4°C 70.4°F21.3°C 55% 1.4 mph NNW2.3 kmh NNW 4.9 mph7.9 kmh 29.07 in984.4 mb 0.00 in0.0 mm 0.00 in0.0 mm 0.00 in0.0 mm
05:10 PM 88.5°F31.4°C 70.5°F21.4°C 56% 0.6 mph NW1.0 kmh NW 2.5 mph4.0 kmh 29.07 in984.4 mb 0.00 in0.0 mm 0.00 in0.0 mm 0.00 in0.0 mm
05:15 PM 88.5°F31.4°C 70.6°F21.4°C 56% 0.5 mph N0.8 kmh N 2.5 mph4.0 kmh 29.07 in984.4 mb 0.00 in0.0 mm 0.00 in0.0 mm 0.00 in0.0 mm
05:20 PM 88.5°F31.4°C 71.2°F21.8°C 57% 1.6 mph N2.6 kmh N 4.9 mph7.9 kmh 29.07 in984.4 mb 0.00 in0.0 mm 0.00 in0.0 mm 0.00 in0.0 mm
05:25 PM 87.8°F31.0°C 71.2°F21.8°C 58% 1.7 mph N2.7 kmh N 4.9 mph7.9 kmh 29.07 in984.4 mb 0.00 in0.0 mm 0.00 in0.0 mm 0.00 in0.0 mm
05:30 PM 88.0°F31.1°C 71.2°F21.8°C 58% 2.7 mph N4.3 kmh N 4.9 mph7.9 kmh 29.06 in984.1 mb 0.00 in0.0 mm 0.00 in0.0 mm 0.00 in0.0 mm
05:35 PM 88.0°F31.1°C 71.5°F21.9°C 58% 0.4 mph NE0.6 kmh NE 2.5 mph4.0 kmh 29.07 in984.4 mb 0.00 in0.0 mm 0.00 in0.0 mm 0.00 in0.0 mm
05:40 PM 88.0°F31.1°C 70.5°F21.4°C 56% Calm Calm 2.5 mph4.0 kmh 29.06 in984.1 mb 0.00 in0.0 mm 0.00 in0.0 mm 0.00 in0.0 mm
05:45 PM 89.3°F31.8°C 70.5°F21.4°C 54% 0.3 mph NNW0.5 kmh NNW 2.5 mph4.0 kmh 29.06 in984.1 mb 0.00 in0.0 mm 0.00 in0.0 mm 0.00 in0.0 mm
05:50 PM 89.2°F31.8°C 70.2°F21.2°C 54% 0.4 mph ENE0.6 kmh ENE 2.5 mph4.0 kmh 29.06 in984.1 mb 0.00 in0.0 mm 0.00 in0.0 mm 0.00 in0.0 mm
05:55 PM 89.2°F31.8°C 69.8°F21.0°C 53% Calm Calm 2.5 mph4.0 kmh 29.06 in984.1 mb 0.00 in0.0 mm 0.00 in0.0 mm 0.00 in0.0 mm
06:00 PM 89.2°F31.8°C 70.1°F21.2°C 54% 0.4 mph 0.6 kmh 2.5 mph4.0 kmh 29.06 in984.1 mb 0.00 in0.0 mm 0.00 in0.0 mm 0.00 in0.0 mm
06:05 PM 88.3°F31.3°C 70.5°F21.4°C 56% 0.8 mph N1.3 kmh N 2.5 mph4.0 kmh 29.05 in983.7 mb 0.00 in0.0 mm 0.00 in0.0 mm 0.00 in0.0 mm
06:10 PM 88.3°F31.3°C 71.1°F21.7°C 57% 1.2 mph NNE1.9 kmh NNE 2.5 mph4.0 kmh 29.05 in983.7 mb 0.00 in0.0 mm 0.00 in0.0 mm 0.00 in0.0 mm
06:15 PM 88.3°F31.3°C 70.6°F21.4°C 56% 0.3 mph NNW0.5 kmh NNW 2.5 mph4.0 kmh 29.05 in983.7 mb 0.00 in0.0 mm 0.00 in0.0 mm 0.00 in0.0 mm
06:20 PM 88.3°F31.3°C 70.4°F21.3°C 56% Calm Calm -- 29.06 in984.1 mb 0.00 in0.0 mm 0.00 in0.0 mm 0.00 in0.0 mm
06:25 PM 88.7°F31.5°C 70.7°F21.5°C 56% 0.9 mph ENE1.4 kmh ENE 4.9 mph7.9 kmh 29.05 in983.7 mb 0.00 in0.0 mm 0.00 in0.0 mm 0.00 in0.0 mm
06:30 PM 88.7°F31.5°C 70.5°F21.4°C 55% 0.4 mph NE0.6 kmh NE 2.5 mph4.0 kmh 29.05 in983.7 mb 0.00 in0.0 mm 0.00 in0.0 mm 0.00 in0.0 mm
06:35 PM 88.7°F31.5°C 70.9°F21.6°C 56% Calm Calm -- 29.05 in983.7 mb 0.00 in0.0 mm 0.00 in0.0 mm 0.00 in0.0 mm
06:40 PM 88.8°F31.6°C 70.7°F21.5°C 55% 0.2 mph E0.3 kmh E 2.5 mph4.0 kmh 29.05 in983.7 mb 0.00 in0.0 mm 0.00 in0.0 mm 0.00 in0.0 mm
06:45 PM 89.2°F31.8°C 71.4°F21.9°C 56% 0.5 mph E0.8 kmh E 2.5 mph4.0 kmh 29.05 in983.7 mb 0.00 in0.0 mm 0.00 in0.0 mm 0.00 in0.0 mm
06:50 PM 89.2°F31.8°C 72.2°F22.3°C 58% Calm Calm -- 29.05 in983.7 mb 0.00 in0.0 mm 0.00 in0.0 mm 0.00 in0.0 mm
06:55 PM 89.0°F31.7°C 72.5°F22.5°C 58% 0.2 mph NNE0.3 kmh NNE 2.5 mph4.0 kmh 29.05 in983.7 mb 0.00 in0.0 mm 0.00 in0.0 mm 0.00 in0.0 mm
07:00 PM 88.8°F31.6°C 72.4°F22.4°C 59% Calm Calm 2.5 mph4.0 kmh 29.05 in983.7 mb 0.00 in0.0 mm 0.00 in0.0 mm 0.00 in0.0 mm
07:05 PM 88.3°F31.3°C 71.7°F22.1°C 58% 0.1 mph ENE0.2 kmh ENE 2.5 mph4.0 kmh 29.05 in983.7 mb 0.00 in0.0 mm 0.00 in0.0 mm 0.00 in0.0 mm
07:10 PM 88.0°F31.1°C 71.7°F22.1°C 59% 0.1 mph N0.2 kmh N 2.5 mph4.0 kmh 29.05 in983.7 mb 0.00 in0.0 mm 0.00 in0.0 mm 0.00 in0.0 mm
07:15 PM 88.1°F31.2°C 71.5°F21.9°C 58% 0.4 mph E0.6 kmh E 2.5 mph4.0 kmh 29.05 in983.7 mb 0.00 in0.0 mm 0.00 in0.0 mm 0.00 in0.0 mm
07:20 PM 88.2°F31.2°C 71.5°F21.9°C 58% Calm Calm 2.5 mph4.0 kmh 29.06 in984.1 mb 0.00 in0.0 mm 0.00 in0.0 mm 0.00 in0.0 mm
07:25 PM 88.1°F31.2°C 71.8°F22.1°C 59% 0.2 mph NNW0.3 kmh NNW 2.5 mph4.0 kmh 29.05 in983.7 mb 0.00 in0.0 mm 0.00 in0.0 mm 0.00 in0.0 mm
07:30 PM 88.0°F31.1°C 71.4°F21.9°C 58% 0.3 mph NE0.5 kmh NE 2.5 mph4.0 kmh 29.05 in983.7 mb 0.00 in0.0 mm 0.00 in0.0 mm 0.00 in0.0 mm
07:35 PM 88.1°F31.2°C 71.4°F21.9°C 58% Calm Calm -- 29.06 in984.1 mb 0.00 in0.0 mm 0.00 in0.0 mm 0.00 in0.0 mm
07:40 PM 88.2°F31.2°C 71.5°F21.9°C 58% Calm Calm -- 29.05 in983.7 mb 0.00 in0.0 mm 0.00 in0.0 mm 0.00 in0.0 mm
07:45 PM 87.7°F30.9°C 71.3°F21.8°C 59% Calm Calm 2.5 mph4.0 kmh 29.05 in983.7 mb 0.00 in0.0 mm 0.00 in0.0 mm 0.00 in0.0 mm
07:50 PM 87.5°F30.8°C 70.8°F21.6°C 58% 0.2 mph NE0.3 kmh NE 2.5 mph4.0 kmh 29.06 in984.1 mb 0.00 in0.0 mm 0.00 in0.0 mm 0.00 in0.0 mm
07:55 PM 87.5°F30.8°C 71.6°F22.0°C 60% Calm Calm -- 29.05 in983.7 mb 0.00 in0.0 mm 0.00 in0.0 mm 0.00 in0.0 mm
08:00 PM 87.4°F30.8°C 71.8°F22.1°C 60% Calm Calm -- 29.05 in983.7 mb 0.00 in0.0 mm 0.00 in0.0 mm 0.00 in0.0 mm
08:05 PM 87.2°F30.7°C 71.8°F22.1°C 60% Calm Calm -- 29.05 in983.7 mb 0.00 in0.0 mm 0.00 in0.0 mm 0.00 in0.0 mm
08:10 PM 86.9°F30.5°C 71.6°F22.0°C 61% 0.3 mph ENE0.5 kmh ENE 2.5 mph4.0 kmh 29.05 in983.7 mb 0.00 in0.0 mm 0.00 in0.0 mm 0.00 in0.0 mm
08:15 PM 86.9°F30.5°C 71.3°F21.8°C 60% 0.2 mph NE0.3 kmh NE 2.5 mph4.0 kmh 29.05 in983.7 mb 0.00 in0.0 mm 0.00 in0.0 mm 0.00 in0.0 mm
08:20 PM 86.8°F30.4°C 71.5°F21.9°C 60% 0.7 mph NE1.1 kmh NE 2.5 mph4.0 kmh 29.05 in983.7 mb 0.00 in0.0 mm 0.00 in0.0 mm 0.00 in0.0 mm
08:25 PM 86.5°F30.3°C 71.4°F21.9°C 61% Calm Calm -- 29.06 in984.1 mb 0.00 in0.0 mm 0.00 in0.0 mm 0.00 in0.0 mm
08:30 PM 86.2°F30.1°C 71.1°F21.7°C 61% 0.1 mph ENE0.2 kmh ENE 2.5 mph4.0 kmh 29.06 in984.1 mb 0.00 in0.0 mm 0.00 in0.0 mm 0.00 in0.0 mm
08:35 PM 86.0°F30.0°C 71.5°F21.9°C 62% 0.1 mph ENE0.2 kmh ENE 2.5 mph4.0 kmh 29.06 in984.1 mb 0.00 in0.0 mm 0.00 in0.0 mm 0.00 in0.0 mm
08:40 PM 86.0°F30.0°C 71.9°F22.2°C 63% 1.3 mph ESE2.1 kmh ESE 2.5 mph4.0 kmh 29.06 in984.1 mb 0.00 in0.0 mm 0.00 in0.0 mm 0.00 in0.0 mm
08:45 PM 85.8°F29.9°C 71.7°F22.1°C 63% 0.5 mph SE0.8 kmh SE 2.5 mph4.0 kmh 29.05 in983.7 mb 0.00 in0.0 mm 0.00 in0.0 mm 0.00 in0.0 mm
08:50 PM 85.5°F29.7°C 71.4°F21.9°C 63% 3.5 mph E5.6 kmh E 4.9 mph7.9 kmh 29.05 in983.7 mb 0.00 in0.0 mm 0.00 in0.0 mm 0.00 in0.0 mm
08:55 PM 85.3°F29.6°C 71.9°F22.2°C 64% 3.4 mph SSE5.5 kmh SSE 9.8 mph15.8 kmh 29.05 in983.7 mb 0.00 in0.0 mm 0.00 in0.0 mm 0.00 in0.0 mm
09:00 PM 85.2°F29.6°C 72.7°F22.6°C 66% 6.2 mph SE10.0 kmh SE 12.3 mph19.8 kmh 29.06 in984.1 mb 0.00 in0.0 mm 0.00 in0.0 mm 0.00 in0.0 mm
09:05 PM 84.7°F29.3°C 72.8°F22.7°C 68% 3.7 mph SE6.0 kmh SE 4.9 mph7.9 kmh 29.06 in984.1 mb 0.00 in0.0 mm 0.00 in0.0 mm 0.00 in0.0 mm
09:10 PM 84.0°F28.9°C 72.7°F22.6°C 69% 3.4 mph SSE5.5 kmh SSE 7.4 mph11.9 kmh 29.06 in984.1 mb 0.00 in0.0 mm 0.00 in0.0 mm 0.00 in0.0 mm
09:15 PM 84.0°F28.9°C 72.7°F22.6°C 69% 4.4 mph ESE7.1 kmh ESE 9.8 mph15.8 kmh 29.06 in984.1 mb 0.00 in0.0 mm 0.00 in0.0 mm 0.00 in0.0 mm
09:20 PM 84.0°F28.9°C 72.7°F22.6°C 69% 5.7 mph SE9.2 kmh SE 9.8 mph15.8 kmh 29.07 in984.4 mb 0.00 in0.0 mm 0.00 in0.0 mm 0.00 in0.0 mm
09:25 PM 83.8°F28.8°C 72.5°F22.5°C 69% 4.4 mph SE7.1 kmh SE 7.4 mph11.9 kmh 29.07 in984.4 mb 0.00 in0.0 mm 0.00 in0.0 mm 0.00 in0.0 mm
09:30 PM 83.5°F28.6°C 72.2°F22.3°C 69% 5.3 mph SE8.5 kmh SE 12.3 mph19.8 kmh 29.07 in984.4 mb 0.00 in0.0 mm 0.00 in0.0 mm 0.00 in0.0 mm
09:35 PM 83.5°F28.6°C 72.4°F22.4°C 70% 3.9 mph E6.3 kmh E 7.4 mph11.9 kmh 29.07 in984.4 mb 0.00 in0.0 mm 0.00 in0.0 mm 0.00 in0.0 mm
09:40 PM 83.4°F28.6°C 72.6°F22.6°C 70% 4.4 mph SE7.1 kmh SE 9.8 mph15.8 kmh 29.07 in984.4 mb 0.00 in0.0 mm 0.00 in0.0 mm 0.00 in0.0 mm
09:45 PM 83.1°F28.4°C 72.6°F22.6°C 71% 4.7 mph S7.6 kmh S 7.4 mph11.9 kmh 29.07 in984.4 mb 0.00 in0.0 mm 0.00 in0.0 mm 0.00 in0.0 mm
09:50 PM 82.7°F28.2°C 72.5°F22.5°C 71% 3.2 mph ESE5.1 kmh ESE 4.9 mph7.9 kmh 29.08 in984.8 mb 0.00 in0.0 mm 0.00 in0.0 mm 0.00 in0.0 mm
09:55 PM 82.6°F28.1°C 72.6°F22.6°C 72% 4.1 mph E6.6 kmh E 12.3 mph19.8 kmh 29.08 in984.8 mb 0.00 in0.0 mm 0.00 in0.0 mm 0.00 in0.0 mm
10:00 PM 82.6°F28.1°C 72.6°F22.6°C 72% 4.1 mph SSE6.6 kmh SSE 7.4 mph11.9 kmh 29.08 in984.8 mb 0.00 in0.0 mm 0.00 in0.0 mm 0.00 in0.0 mm
10:05 PM 82.5°F28.1°C 72.6°F22.6°C 72% 4.1 mph SE6.6 kmh SE 7.4 mph11.9 kmh 29.08 in984.8 mb 0.00 in0.0 mm 0.00 in0.0 mm 0.00 in0.0 mm
10:10 PM 82.2°F27.9°C 72.4°F22.4°C 72% 5.0 mph SE8.0 kmh SE 9.8 mph15.8 kmh 29.09 in985.1 mb 0.00 in0.0 mm 0.00 in0.0 mm 0.00 in0.0 mm
10:15 PM 82.1°F27.8°C 72.5°F22.5°C 73% 5.6 mph SE9.0 kmh SE 12.3 mph19.8 kmh 29.09 in985.1 mb 0.00 in0.0 mm 0.00 in0.0 mm 0.00 in0.0 mm
10:20 PM 82.0°F27.8°C 72.5°F22.5°C 73% 3.3 mph SE5.3 kmh SE 7.4 mph11.9 kmh 29.09 in985.1 mb 0.00 in0.0 mm 0.00 in0.0 mm 0.00 in0.0 mm
10:25 PM 82.0°F27.8°C 72.4°F22.4°C 73% 3.6 mph E5.8 kmh E 7.4 mph11.9 kmh 29.09 in985.1 mb 0.00 in0.0 mm 0.00 in0.0 mm 0.00 in0.0 mm
10:30 PM 81.8°F27.7°C 72.5°F22.5°C 74% 5.0 mph SE8.0 kmh SE 7.4 mph11.9 kmh 29.09 in985.1 mb 0.00 in0.0 mm 0.00 in0.0 mm 0.00 in0.0 mm
10:35 PM 81.7°F27.6°C 72.6°F22.6°C 74% 3.3 mph SE5.3 kmh SE 9.8 mph15.8 kmh 29.09 in985.1 mb 0.00 in0.0 mm 0.00 in0.0 mm 0.00 in0.0 mm
10:40 PM 81.7°F27.6°C 72.6°F22.6°C 74% 3.2 mph ESE5.1 kmh ESE 4.9 mph7.9 kmh 29.09 in985.1 mb 0.00 in0.0 mm 0.00 in0.0 mm 0.00 in0.0 mm
10:45 PM 81.7°F27.6°C 72.6°F22.6°C 74% 3.7 mph ESE6.0 kmh ESE 7.4 mph11.9 kmh 29.09 in985.1 mb 0.00 in0.0 mm 0.00 in0.0 mm 0.00 in0.0 mm
10:50 PM 81.5°F27.5°C 72.4°F22.4°C 74% 3.7 mph SE6.0 kmh SE 7.4 mph11.9 kmh 29.09 in985.1 mb 0.00 in0.0 mm 0.00 in0.0 mm 0.00 in0.0 mm
10:55 PM 81.5°F27.5°C 72.4°F22.4°C 74% 5.6 mph SSE9.0 kmh SSE 9.8 mph15.8 kmh 29.10 in985.4 mb 0.00 in0.0 mm 0.00 in0.0 mm 0.00 in0.0 mm
11:00 PM 81.4°F27.4°C 72.3°F22.4°C 74% 6.2 mph SE10.0 kmh SE 12.3 mph19.8 kmh 29.09 in985.1 mb 0.00 in0.0 mm 0.00 in0.0 mm 0.00 in0.0 mm
11:05 PM 81.3°F27.4°C 72.5°F22.5°C 75% 3.5 mph ESE5.6 kmh ESE 7.4 mph11.9 kmh 29.10 in985.4 mb 0.00 in0.0 mm 0.00 in0.0 mm 0.00 in0.0 mm
11:10 PM 81.3°F27.4°C 72.6°F22.6°C 75% 3.2 mph E5.1 kmh E 7.4 mph11.9 kmh 29.10 in985.4 mb 0.00 in0.0 mm 0.00 in0.0 mm 0.00 in0.0 mm
11:15 PM 81.3°F27.4°C 72.7°F22.6°C 75% 3.6 mph SE5.8 kmh SE 7.4 mph11.9 kmh 29.10 in985.4 mb 0.00 in0.0 mm 0.00 in0.0 mm 0.00 in0.0 mm
11:20 PM 81.3°F27.4°C 73.0°F22.8°C 76% 4.6 mph S7.4 kmh S 7.4 mph11.9 kmh 29.10 in985.4 mb 0.00 in0.0 mm 0.00 in0.0 mm 0.00 in0.0 mm
11:25 PM 81.3°F27.4°C 73.0°F22.8°C 76% 4.7 mph SSE7.6 kmh SSE 7.4 mph11.9 kmh 29.10 in985.4 mb 0.00 in0.0 mm 0.00 in0.0 mm 0.00 in0.0 mm
11:30 PM 81.1°F27.3°C 72.8°F22.7°C 76% 3.8 mph SSE6.1 kmh SSE 7.4 mph11.9 kmh 29.10 in985.4 mb 0.00 in0.0 mm 0.00 in0.0 mm 0.00 in0.0 mm
11:35 PM 81.0°F27.2°C 73.1°F22.8°C 77% 4.4 mph ESE7.1 kmh ESE 7.4 mph11.9 kmh 29.10 in985.4 mb 0.00 in0.0 mm 0.00 in0.0 mm 0.00 in0.0 mm
11:40 PM 81.0°F27.2°C 73.3°F22.9°C 78% 5.0 mph SSE8.0 kmh SSE 9.8 mph15.8 kmh 29.10 in985.4 mb 0.00 in0.0 mm 0.00 in0.0 mm 0.00 in0.0 mm
11:45 PM 80.9°F27.2°C 73.4°F23.0°C 78% 4.3 mph ESE6.9 kmh ESE 9.8 mph15.8 kmh 29.10 in985.4 mb 0.00 in0.0 mm 0.00 in0.0 mm 0.00 in0.0 mm
11:50 PM 80.5°F26.9°C 73.1°F22.8°C 78% 5.8 mph SSE9.3 kmh SSE 9.8 mph15.8 kmh 29.11 in985.8 mb 0.00 in0.0 mm 0.00 in0.0 mm 0.00 in0.0 mm
11:55 PM 80.4°F26.9°C 72.9°F22.7°C 78% 3.9 mph SE6.3 kmh SE 7.4 mph11.9 kmh 29.11 in985.8 mb 0.00 in0.0 mm 0.00 in0.0 mm 0.00 in0.0 mm